sensor_id;sensor_type;location;lat;lon;timestamp;P1;durP1;ratioP1;P2;durP2;ratioP2
9821;SDS011;4950;46.042;14.472;2022-09-21T00:01:11;1.80;;;1.57;;
9821;SDS011;4950;46.042;14.472;2022-09-21T00:03:39;2.33;;;1.63;;
9821;SDS011;4950;46.042;14.472;2022-09-21T00:06:08;2.23;;;1.60;;
9821;SDS011;4950;46.042;14.472;2022-09-21T00:08:37;3.60;;;1.70;;
9821;SDS011;4950;46.042;14.472;2022-09-21T00:11:04;2.80;;;1.80;;
9821;SDS011;4950;46.042;14.472;2022-09-21T00:13:33;3.53;;;2.30;;
9821;SDS011;4950;46.042;14.472;2022-09-21T00:16:03;2.53;;;1.60;;
9821;SDS011;4950;46.042;14.472;2022-09-21T00:18:30;3.90;;;2.07;;
9821;SDS011;4950;46.042;14.472;2022-09-21T00:20:57;2.77;;;2.10;;
9821;SDS011;4950;46.042;14.472;2022-09-21T00:23:24;2.53;;;1.40;;
9821;SDS011;4950;46.042;14.472;2022-09-21T00:25:52;2.00;;;1.70;;
9821;SDS011;4950;46.042;14.472;2022-09-21T00:28:29;3.40;;;1.80;;
9821;SDS011;4950;46.042;14.472;2022-09-21T00:30:59;4.53;;;1.90;;
9821;SDS011;4950;46.042;14.472;2022-09-21T00:33:26;2.40;;;2.10;;
9821;SDS011;4950;46.042;14.472;2022-09-21T00:35:53;1.97;;;1.80;;
9821;SDS011;4950;46.042;14.472;2022-09-21T00:38:19;1.93;;;1.73;;
9821;SDS011;4950;46.042;14.472;2022-09-21T00:40:46;3.13;;;2.03;;
9821;SDS011;4950;46.042;14.472;2022-09-21T00:43:15;3.90;;;1.80;;
9821;SDS011;4950;46.042;14.472;2022-09-21T00:45:42;3.40;;;2.00;;
9821;SDS011;4950;46.042;14.472;2022-09-21T00:48:12;3.70;;;2.13;;
9821;SDS011;4950;46.042;14.472;2022-09-21T00:50:41;3.73;;;2.57;;
9821;SDS011;4950;46.042;14.472;2022-09-21T00:53:15;3.00;;;2.40;;
9821;SDS011;4950;46.042;14.472;2022-09-21T00:55:43;2.77;;;2.33;;
9821;SDS011;4950;46.042;14.472;2022-09-21T00:58:17;5.00;;;2.20;;
9821;SDS011;4950;46.042;14.472;2022-09-21T01:00:49;3.43;;;2.40;;
9821;SDS011;4950;46.042;14.472;2022-09-21T01:03:16;2.87;;;1.97;;
9821;SDS011;4950;46.042;14.472;2022-09-21T01:05:43;2.73;;;2.10;;
9821;SDS011;4950;46.042;14.472;2022-09-21T01:08:09;2.37;;;1.97;;
9821;SDS011;4950;46.042;14.472;2022-09-21T01:10:41;2.30;;;2.10;;
9821;SDS011;4950;46.042;14.472;2022-09-21T01:13:24;2.70;;;1.87;;
9821;SDS011;4950;46.042;14.472;2022-09-21T01:16:00;3.60;;;1.90;;
9821;SDS011;4950;46.042;14.472;2022-09-21T01:18:34;2.40;;;1.40;;
9821;SDS011;4950;46.042;14.472;2022-09-21T01:21:11;1.97;;;1.30;;
9821;SDS011;4950;46.042;14.472;2022-09-21T01:27:07;4.60;;;1.50;;
9821;SDS011;4950;46.042;14.472;2022-09-21T01:29:57;2.30;;;1.60;;
9821;SDS011;4950;46.042;14.472;2022-09-21T01:32:28;3.10;;;1.70;;
9821;SDS011;4950;46.042;14.472;2022-09-21T01:35:00;3.00;;;1.73;;
9821;SDS011;4950;46.042;14.472;2022-09-21T01:37:34;1.83;;;1.60;;
9821;SDS011;4950;46.042;14.472;2022-09-21T01:40:06;1.80;;;1.70;;
9821;SDS011;4950;46.042;14.472;2022-09-21T01:42:36;1.93;;;1.70;;
9821;SDS011;4950;46.042;14.472;2022-09-21T01:45:07;2.10;;;1.70;;
9821;SDS011;4950;46.042;14.472;2022-09-21T01:47:39;2.93;;;1.73;;
9821;SDS011;4950;46.042;14.472;2022-09-21T01:50:08;1.87;;;1.47;;
9821;SDS011;4950;46.042;14.472;2022-09-21T01:52:38;2.33;;;1.63;;
9821;SDS011;4950;46.042;14.472;2022-09-21T01:55:09;1.50;;;1.40;;
9821;SDS011;4950;46.042;14.472;2022-09-21T01:57:41;1.70;;;1.60;;
9821;SDS011;4950;46.042;14.472;2022-09-21T02:00:14;1.83;;;1.50;;
9821;SDS011;4950;46.042;14.472;2022-09-21T02:02:42;2.33;;;1.60;;
9821;SDS011;4950;46.042;14.472;2022-09-21T02:05:14;3.57;;;1.70;;
9821;SDS011;4950;46.042;14.472;2022-09-21T02:07:44;2.60;;;1.50;;
9821;SDS011;4950;46.042;14.472;2022-09-21T02:10:12;1.80;;;1.40;;
9821;SDS011;4950;46.042;14.472;2022-09-21T02:12:45;3.97;;;1.73;;
9821;SDS011;4950;46.042;14.472;2022-09-21T02:15:13;2.07;;;1.70;;
9821;SDS011;4950;46.042;14.472;2022-09-21T02:17:46;5.47;;;1.93;;
9821;SDS011;4950;46.042;14.472;2022-09-21T02:20:22;2.13;;;1.93;;
9821;SDS011;4950;46.042;14.472;2022-09-21T02:22:57;2.43;;;1.73;;
9821;SDS011;4950;46.042;14.472;2022-09-21T02:25:34;3.00;;;1.70;;
9821;SDS011;4950;46.042;14.472;2022-09-21T02:28:11;2.80;;;1.60;;
9821;SDS011;4950;46.042;14.472;2022-09-21T02:30:54;7.23;;;2.37;;
9821;SDS011;4950;46.042;14.472;2022-09-21T02:33:27;2.73;;;2.33;;
9821;SDS011;4950;46.042;14.472;2022-09-21T02:35:57;1.90;;;1.60;;
9821;SDS011;4950;46.042;14.472;2022-09-21T02:38:33;3.13;;;1.90;;
9821;SDS011;4950;46.042;14.472;2022-09-21T02:41:03;3.10;;;1.73;;
9821;SDS011;4950;46.042;14.472;2022-09-21T02:43:40;2.20;;;1.63;;
9821;SDS011;4950;46.042;14.472;2022-09-21T02:46:12;3.57;;;1.80;;
9821;SDS011;4950;46.042;14.472;2022-09-21T02:48:44;3.37;;;1.80;;
9821;SDS011;4950;46.042;14.472;2022-09-21T02:51:15;2.77;;;1.87;;
9821;SDS011;4950;46.042;14.472;2022-09-21T02:53:44;1.80;;;1.70;;
9821;SDS011;4950;46.042;14.472;2022-09-21T02:56:13;2.00;;;1.80;;
9821;SDS011;4950;46.042;14.472;2022-09-21T02:58:42;1.90;;;1.50;;
9821;SDS011;4950;46.042;14.472;2022-09-21T03:01:13;2.83;;;1.90;;
9821;SDS011;4950;46.042;14.472;2022-09-21T03:03:41;2.20;;;1.77;;
9821;SDS011;4950;46.042;14.472;2022-09-21T03:06:09;2.53;;;1.70;;
9821;SDS011;4950;46.042;14.472;2022-09-21T03:08:35;6.50;;;1.70;;
9821;SDS011;4950;46.042;14.472;2022-09-21T03:11:02;4.10;;;1.93;;
9821;SDS011;4950;46.042;14.472;2022-09-21T03:13:29;5.80;;;1.80;;
9821;SDS011;4950;46.042;14.472;2022-09-21T03:15:59;2.83;;;1.60;;
9821;SDS011;4950;46.042;14.472;2022-09-21T03:18:27;2.53;;;1.40;;
9821;SDS011;4950;46.042;14.472;2022-09-21T03:20:54;2.07;;;1.70;;
9821;SDS011;4950;46.042;14.472;2022-09-21T03:23:21;1.57;;;1.47;;
9821;SDS011;4950;46.042;14.472;2022-09-21T03:25:48;4.10;;;1.70;;
9821;SDS011;4950;46.042;14.472;2022-09-21T03:28:16;3.07;;;1.80;;
9821;SDS011;4950;46.042;14.472;2022-09-21T03:30:44;2.27;;;1.70;;
9821;SDS011;4950;46.042;14.472;2022-09-21T03:33:10;3.47;;;2.00;;
9821;SDS011;4950;46.042;14.472;2022-09-21T03:35:39;2.63;;;2.37;;
9821;SDS011;4950;46.042;14.472;2022-09-21T03:38:06;3.10;;;2.80;;
9821;SDS011;4950;46.042;14.472;2022-09-21T03:40:33;3.00;;;2.70;;
9821;SDS011;4950;46.042;14.472;2022-09-21T03:43:00;3.40;;;3.10;;
9821;SDS011;4950;46.042;14.472;2022-09-21T03:45:27;3.93;;;3.60;;
9821;SDS011;4950;46.042;14.472;2022-09-21T03:47:54;3.70;;;3.40;;
9821;SDS011;4950;46.042;14.472;2022-09-21T03:50:21;3.73;;;3.40;;
9821;SDS011;4950;46.042;14.472;2022-09-21T03:52:50;4.00;;;3.60;;
9821;SDS011;4950;46.042;14.472;2022-09-21T03:55:17;4.00;;;3.40;;
9821;SDS011;4950;46.042;14.472;2022-09-21T03:57:43;4.17;;;3.70;;
9821;SDS011;4950;46.042;14.472;2022-09-21T04:00:10;4.00;;;3.60;;
9821;SDS011;4950;46.042;14.472;2022-09-21T04:02:38;4.57;;;3.50;;
9821;SDS011;4950;46.042;14.472;2022-09-21T04:05:05;4.30;;;3.90;;
9821;SDS011;4950;46.042;14.472;2022-09-21T04:07:33;6.27;;;3.87;;
9821;SDS011;4950;46.042;14.472;2022-09-21T04:10:02;4.50;;;4.10;;
9821;SDS011;4950;46.042;14.472;2022-09-21T04:12:30;4.47;;;3.60;;
9821;SDS011;4950;46.042;14.472;2022-09-21T04:14:58;4.73;;;4.23;;
9821;SDS011;4950;46.042;14.472;2022-09-21T04:17:25;5.00;;;4.50;;
9821;SDS011;4950;46.042;14.472;2022-09-21T04:19:52;4.57;;;4.17;;
9821;SDS011;4950;46.042;14.472;2022-09-21T04:22:18;4.60;;;4.13;;
9821;SDS011;4950;46.042;14.472;2022-09-21T04:24:45;4.77;;;4.37;;
9821;SDS011;4950;46.042;14.472;2022-09-21T04:27:13;5.20;;;4.70;;
9821;SDS011;4950;46.042;14.472;2022-09-21T04:29:39;4.53;;;4.03;;
9821;SDS011;4950;46.042;14.472;2022-09-21T04:32:06;4.97;;;4.50;;
9821;SDS011;4950;46.042;14.472;2022-09-21T04:34:33;6.57;;;5.20;;
9821;SDS011;4950;46.042;14.472;2022-09-21T04:37:00;5.90;;;5.40;;
9821;SDS011;4950;46.042;14.472;2022-09-21T04:39:26;7.17;;;5.00;;
9821;SDS011;4950;46.042;14.472;2022-09-21T04:41:53;5.77;;;5.27;;
9821;SDS011;4950;46.042;14.472;2022-09-21T04:44:22;5.93;;;5.03;;
9821;SDS011;4950;46.042;14.472;2022-09-21T04:46:48;9.83;;;5.30;;
9821;SDS011;4950;46.042;14.472;2022-09-21T04:49:15;5.67;;;5.10;;
9821;SDS011;4950;46.042;14.472;2022-09-21T04:51:42;7.70;;;5.07;;
9821;SDS011;4950;46.042;14.472;2022-09-21T04:54:08;6.10;;;4.70;;
9821;SDS011;4950;46.042;14.472;2022-09-21T04:56:35;16.20;;;5.70;;
9821;SDS011;4950;46.042;14.472;2022-09-21T04:59:01;15.53;;;5.33;;
9821;SDS011;4950;46.042;14.472;2022-09-21T05:01:29;6.57;;;4.93;;
9821;SDS011;4950;46.042;14.472;2022-09-21T05:03:56;5.67;;;4.60;;
9821;SDS011;4950;46.042;14.472;2022-09-21T05:06:25;5.53;;;5.03;;
9821;SDS011;4950;46.042;14.472;2022-09-21T05:08:52;8.07;;;5.10;;
9821;SDS011;4950;46.042;14.472;2022-09-21T05:11:36;5.33;;;4.83;;
9821;SDS011;4950;46.042;14.472;2022-09-21T05:14:04;5.57;;;5.07;;
9821;SDS011;4950;46.042;14.472;2022-09-21T05:16:32;5.53;;;5.03;;
9821;SDS011;4950;46.042;14.472;2022-09-21T05:18:59;7.47;;;5.37;;
9821;SDS011;4950;46.042;14.472;2022-09-21T05:21:25;6.20;;;5.60;;
9821;SDS011;4950;46.042;14.472;2022-09-21T05:23:53;6.40;;;5.73;;
9821;SDS011;4950;46.042;14.472;2022-09-21T05:26:20;7.00;;;5.57;;
9821;SDS011;4950;46.042;14.472;2022-09-21T05:28:46;6.20;;;5.60;;
9821;SDS011;4950;46.042;14.472;2022-09-21T05:31:18;6.03;;;5.53;;
9821;SDS011;4950;46.042;14.472;2022-09-21T05:33:58;6.30;;;5.70;;
9821;SDS011;4950;46.042;14.472;2022-09-21T05:36:34;6.13;;;5.53;;
9821;SDS011;4950;46.042;14.472;2022-09-21T05:39:11;6.70;;;5.90;;
9821;SDS011;4950;46.042;14.472;2022-09-21T05:41:38;18.27;;;5.20;;
9821;SDS011;4950;46.042;14.472;2022-09-21T05:44:05;19.90;;;5.60;;
9821;SDS011;4950;46.042;14.472;2022-09-21T05:46:34;5.63;;;5.13;;
9821;SDS011;4950;46.042;14.472;2022-09-21T05:49:08;6.03;;;5.43;;
9821;SDS011;4950;46.042;14.472;2022-09-21T05:51:45;6.23;;;5.70;;
9821;SDS011;4950;46.042;14.472;2022-09-21T05:54:23;6.10;;;5.43;;
9821;SDS011;4950;46.042;14.472;2022-09-21T05:56:57;6.87;;;5.87;;
9821;SDS011;4950;46.042;14.472;2022-09-21T05:59:36;7.03;;;5.30;;
9821;SDS011;4950;46.042;14.472;2022-09-21T06:02:14;11.40;;;5.87;;
9821;SDS011;4950;46.042;14.472;2022-09-21T06:04:49;6.17;;;5.43;;
9821;SDS011;4950;46.042;14.472;2022-09-21T06:07:19;6.10;;;5.53;;
9821;SDS011;4950;46.042;14.472;2022-09-21T06:09:45;6.00;;;5.00;;
9821;SDS011;4950;46.042;14.472;2022-09-21T06:12:12;10.43;;;6.23;;
9821;SDS011;4950;46.042;14.472;2022-09-21T06:14:38;7.20;;;5.97;;
9821;SDS011;4950;46.042;14.472;2022-09-21T06:17:05;5.40;;;4.90;;
9821;SDS011;4950;46.042;14.472;2022-09-21T06:19:32;5.73;;;5.23;;
9821;SDS011;4950;46.042;14.472;2022-09-21T06:22:00;7.00;;;5.17;;
9821;SDS011;4950;46.042;14.472;2022-09-21T06:24:26;6.93;;;6.23;;
9821;SDS011;4950;46.042;14.472;2022-09-21T06:26:53;7.00;;;6.30;;
9821;SDS011;4950;46.042;14.472;2022-09-21T06:29:19;6.83;;;5.80;;
9821;SDS011;4950;46.042;14.472;2022-09-21T06:31:47;6.63;;;6.03;;
9821;SDS011;4950;46.042;14.472;2022-09-21T06:34:14;6.87;;;6.20;;
9821;SDS011;4950;46.042;14.472;2022-09-21T06:36:41;8.37;;;6.33;;
9821;SDS011;4950;46.042;14.472;2022-09-21T06:39:09;6.73;;;6.03;;
9821;SDS011;4950;46.042;14.472;2022-09-21T06:41:36;7.43;;;6.07;;
9821;SDS011;4950;46.042;14.472;2022-09-21T06:44:03;6.80;;;6.13;;
9821;SDS011;4950;46.042;14.472;2022-09-21T06:46:30;6.57;;;5.97;;
9821;SDS011;4950;46.042;14.472;2022-09-21T06:48:57;6.80;;;6.10;;
9821;SDS011;4950;46.042;14.472;2022-09-21T06:51:23;7.00;;;6.30;;
9821;SDS011;4950;46.042;14.472;2022-09-21T06:53:53;6.63;;;6.03;;
9821;SDS011;4950;46.042;14.472;2022-09-21T06:56:22;6.60;;;5.93;;
9821;SDS011;4950;46.042;14.472;2022-09-21T06:58:49;6.90;;;6.10;;
9821;SDS011;4950;46.042;14.472;2022-09-21T07:01:16;6.43;;;5.80;;
9821;SDS011;4950;46.042;14.472;2022-09-21T07:03:44;7.70;;;6.20;;
9821;SDS011;4950;46.042;14.472;2022-09-21T07:06:14;6.83;;;6.23;;
9821;SDS011;4950;46.042;14.472;2022-09-21T07:08:41;6.97;;;6.30;;
9821;SDS011;4950;46.042;14.472;2022-09-21T07:11:10;8.07;;;6.67;;
9821;SDS011;4950;46.042;14.472;2022-09-21T07:13:38;7.13;;;6.40;;
9821;SDS011;4950;46.042;14.472;2022-09-21T07:16:05;7.63;;;6.80;;
9821;SDS011;4950;46.042;14.472;2022-09-21T07:18:33;7.73;;;7.03;;
9821;SDS011;4950;46.042;14.472;2022-09-21T07:21:01;7.20;;;6.43;;
9821;SDS011;4950;46.042;14.472;2022-09-21T07:23:28;7.80;;;6.43;;
9821;SDS011;4950;46.042;14.472;2022-09-21T07:25:55;8.27;;;7.53;;
9821;SDS011;4950;46.042;14.472;2022-09-21T07:28:26;7.90;;;7.10;;
9821;SDS011;4950;46.042;14.472;2022-09-21T07:30:54;7.43;;;6.73;;
9821;SDS011;4950;46.042;14.472;2022-09-21T07:33:21;7.93;;;6.63;;
9821;SDS011;4950;46.042;14.472;2022-09-21T07:35:51;8.00;;;7.20;;
9821;SDS011;4950;46.042;14.472;2022-09-21T07:38:21;7.80;;;7.00;;
9821;SDS011;4950;46.042;14.472;2022-09-21T07:40:47;9.13;;;7.13;;
9821;SDS011;4950;46.042;14.472;2022-09-21T07:43:14;8.47;;;7.73;;
9821;SDS011;4950;46.042;14.472;2022-09-21T07:45:41;8.97;;;7.53;;
9821;SDS011;4950;46.042;14.472;2022-09-21T07:48:09;8.60;;;7.80;;
9821;SDS011;4950;46.042;14.472;2022-09-21T07:50:36;9.27;;;7.93;;
9821;SDS011;4950;46.042;14.472;2022-09-21T07:53:03;9.07;;;7.53;;
9821;SDS011;4950;46.042;14.472;2022-09-21T07:55:30;9.90;;;8.90;;
9821;SDS011;4950;46.042;14.472;2022-09-21T07:57:56;8.70;;;8.00;;
9821;SDS011;4950;46.042;14.472;2022-09-21T08:00:41;8.63;;;7.80;;
9821;SDS011;4950;46.042;14.472;2022-09-21T08:03:07;9.10;;;8.30;;
9821;SDS011;4950;46.042;14.472;2022-09-21T08:05:35;9.93;;;9.03;;
9821;SDS011;4950;46.042;14.472;2022-09-21T08:08:02;9.00;;;8.20;;
9821;SDS011;4950;46.042;14.472;2022-09-21T08:10:28;9.37;;;8.60;;
9821;SDS011;4950;46.042;14.472;2022-09-21T08:12:57;9.57;;;8.67;;
9821;SDS011;4950;46.042;14.472;2022-09-21T08:15:23;9.63;;;8.80;;
9821;SDS011;4950;46.042;14.472;2022-09-21T08:17:51;9.40;;;8.60;;
9821;SDS011;4950;46.042;14.472;2022-09-21T08:20:17;9.67;;;8.73;;
9821;SDS011;4950;46.042;14.472;2022-09-21T08:22:46;8.67;;;7.87;;
9821;SDS011;4950;46.042;14.472;2022-09-21T08:25:13;9.63;;;8.70;;
9821;SDS011;4950;46.042;14.472;2022-09-21T08:27:40;9.50;;;8.60;;
9821;SDS011;4950;46.042;14.472;2022-09-21T08:30:07;8.70;;;7.90;;
9821;SDS011;4950;46.042;14.472;2022-09-21T08:32:37;7.40;;;6.63;;
9821;SDS011;4950;46.042;14.472;2022-09-21T08:35:04;6.97;;;6.33;;
9821;SDS011;4950;46.042;14.472;2022-09-21T08:37:31;7.17;;;6.47;;
9821;SDS011;4950;46.042;14.472;2022-09-21T08:40:01;7.77;;;7.07;;
9821;SDS011;4950;46.042;14.472;2022-09-21T08:42:32;7.33;;;6.63;;
9821;SDS011;4950;46.042;14.472;2022-09-21T08:45:06;8.37;;;7.53;;
9821;SDS011;4950;46.042;14.472;2022-09-21T08:47:39;7.57;;;6.70;;
9821;SDS011;4950;46.042;14.472;2022-09-21T08:50:13;9.80;;;7.33;;
9821;SDS011;4950;46.042;14.472;2022-09-21T08:52:49;8.60;;;7.73;;
9821;SDS011;4950;46.042;14.472;2022-09-21T08:55:23;8.43;;;6.90;;
9821;SDS011;4950;46.042;14.472;2022-09-21T08:57:49;8.43;;;7.60;;
9821;SDS011;4950;46.042;14.472;2022-09-21T09:00:17;7.40;;;6.70;;
9821;SDS011;4950;46.042;14.472;2022-09-21T09:02:50;7.80;;;6.00;;
9821;SDS011;4950;46.042;14.472;2022-09-21T09:05:45;7.17;;;6.47;;
9821;SDS011;4950;46.042;14.472;2022-09-21T09:08:20;5.13;;;3.90;;
9821;SDS011;4950;46.042;14.472;2022-09-21T09:11:15;5.10;;;4.60;;
9821;SDS011;4950;46.042;14.472;2022-09-21T09:13:59;4.80;;;4.30;;
9821;SDS011;4950;46.042;14.472;2022-09-21T09:16:40;5.63;;;5.13;;
9821;SDS011;4950;46.042;14.472;2022-09-21T09:19:17;5.30;;;4.80;;
9821;SDS011;4950;46.042;14.472;2022-09-21T09:21:47;3.10;;;2.30;;
9821;SDS011;4950;46.042;14.472;2022-09-21T09:24:15;2.37;;;2.10;;
9821;SDS011;4950;46.042;14.472;2022-09-21T09:26:46;2.70;;;2.00;;
9821;SDS011;4950;46.042;14.472;2022-09-21T09:29:19;3.13;;;2.43;;
9821;SDS011;4950;46.042;14.472;2022-09-21T09:31:51;2.50;;;2.17;;
9821;SDS011;4950;46.042;14.472;2022-09-21T09:34:20;2.23;;;1.70;;
9821;SDS011;4950;46.042;14.472;2022-09-21T09:36:51;2.43;;;2.00;;
9821;SDS011;4950;46.042;14.472;2022-09-21T09:39:22;2.07;;;1.87;;
9821;SDS011;4950;46.042;14.472;2022-09-21T09:41:54;2.87;;;2.30;;
9821;SDS011;4950;46.042;14.472;2022-09-21T09:44:45;2.40;;;1.90;;
9821;SDS011;4950;46.042;14.472;2022-09-21T09:47:29;2.97;;;1.60;;
9821;SDS011;4950;46.042;14.472;2022-09-21T09:50:08;5.57;;;2.60;;
9821;SDS011;4950;46.042;14.472;2022-09-21T09:52:37;2.13;;;1.60;;
9821;SDS011;4950;46.042;14.472;2022-09-21T09:55:10;3.15;;;1.80;;
9821;SDS011;4950;46.042;14.472;2022-09-21T09:57:45;2.10;;;1.60;;
9821;SDS011;4950;46.042;14.472;2022-09-21T10:00:13;1.83;;;1.57;;
9821;SDS011;4950;46.042;14.472;2022-09-21T10:02:46;2.17;;;1.50;;
9821;SDS011;4950;46.042;14.472;2022-09-21T10:05:21;1.60;;;1.50;;
9821;SDS011;4950;46.042;14.472;2022-09-21T10:07:50;1.33;;;1.23;;
9821;SDS011;4950;46.042;14.472;2022-09-21T10:10:31;3.47;;;1.00;;
9821;SDS011;4950;46.042;14.472;2022-09-21T10:13:10;1.83;;;1.15;;
9821;SDS011;4950;46.042;14.472;2022-09-21T10:15:40;3.63;;;1.23;;
9821;SDS011;4950;46.042;14.472;2022-09-21T10:18:14;1.23;;;1.10;;
9821;SDS011;4950;46.042;14.472;2022-09-21T10:20:51;1.75;;;1.40;;
9821;SDS011;4950;46.042;14.472;2022-09-21T10:23:20;2.13;;;1.20;;
9821;SDS011;4950;46.042;14.472;2022-09-21T10:25:52;2.28;;;1.40;;
9821;SDS011;4950;46.042;14.472;2022-09-21T10:28:21;2.42;;;1.40;;
9821;SDS011;4950;46.042;14.472;2022-09-21T10:30:49;2.35;;;1.40;;
9821;SDS011;4950;46.042;14.472;2022-09-21T10:33:32;1.80;;;1.20;;
9821;SDS011;4950;46.042;14.472;2022-09-21T10:36:07;1.27;;;1.17;;
9821;SDS011;4950;46.042;14.472;2022-09-21T10:38:51;1.85;;;1.30;;
9821;SDS011;4950;46.042;14.472;2022-09-21T10:41:18;1.58;;;1.25;;
9821;SDS011;4950;46.042;14.472;2022-09-21T10:43:46;1.23;;;1.13;;
9821;SDS011;4950;46.042;14.472;2022-09-21T10:46:14;1.13;;;1.00;;
9821;SDS011;4950;46.042;14.472;2022-09-21T10:48:43;1.27;;;1.17;;
9821;SDS011;4950;46.042;14.472;2022-09-21T10:51:18;1.23;;;1.00;;
9821;SDS011;4950;46.042;14.472;2022-09-21T10:53:50;1.63;;;1.10;;
9821;SDS011;4950;46.042;14.472;2022-09-21T10:56:17;1.50;;;1.33;;
9821;SDS011;4950;46.042;14.472;2022-09-21T11:01:41;1.13;;;1.02;;
9821;SDS011;4950;46.042;14.472;2022-09-21T11:04:10;1.58;;;0.95;;
9821;SDS011;4950;46.042;14.472;2022-09-21T11:06:42;1.95;;;1.13;;
9821;SDS011;4950;46.042;14.472;2022-09-21T11:09:11;0.98;;;0.88;;
9821;SDS011;4950;46.042;14.472;2022-09-21T11:11:45;1.23;;;0.93;;
9821;SDS011;4950;46.042;14.472;2022-09-21T11:14:21;1.70;;;0.93;;
9821;SDS011;4950;46.042;14.472;2022-09-21T11:17:02;1.20;;;1.10;;
9821;SDS011;4950;46.042;14.472;2022-09-21T11:19:34;1.50;;;0.98;;
9821;SDS011;4950;46.042;14.472;2022-09-21T11:22:06;2.70;;;0.98;;
9821;SDS011;4950;46.042;14.472;2022-09-21T11:24:39;1.38;;;1.02;;
9821;SDS011;4950;46.042;14.472;2022-09-21T11:27:15;1.60;;;1.17;;
9821;SDS011;4950;46.042;14.472;2022-09-21T11:29:51;0.80;;;0.70;;
9821;SDS011;4950;46.042;14.472;2022-09-21T11:32:32;2.10;;;1.10;;
9821;SDS011;4950;46.042;14.472;2022-09-21T11:35:22;1.13;;;0.80;;
9821;SDS011;4950;46.042;14.472;2022-09-21T11:38:01;1.63;;;1.00;;
9821;SDS011;4950;46.042;14.472;2022-09-21T11:40:37;2.45;;;0.90;;
9821;SDS011;4950;46.042;14.472;2022-09-21T11:43:23;1.40;;;0.85;;
9821;SDS011;4950;46.042;14.472;2022-09-21T11:46:17;1.33;;;0.50;;
9821;SDS011;4950;46.042;14.472;2022-09-21T11:48:55;1.25;;;0.93;;
9821;SDS011;4950;46.042;14.472;2022-09-21T11:51:34;1.20;;;0.60;;
9821;SDS011;4950;46.042;14.472;2022-09-21T11:54:35;0.70;;;0.60;;
9821;SDS011;4950;46.042;14.472;2022-09-21T11:57:19;2.00;;;0.80;;
9821;SDS011;4950;46.042;14.472;2022-09-21T11:59:56;0.75;;;0.60;;
9821;SDS011;4950;46.042;14.472;2022-09-21T12:02:39;1.38;;;0.80;;
9821;SDS011;4950;46.042;14.472;2022-09-21T12:05:28;1.58;;;0.82;;
9821;SDS011;4950;46.042;14.472;2022-09-21T12:11:01;1.15;;;1.00;;
9821;SDS011;4950;46.042;14.472;2022-09-21T12:13:37;1.05;;;0.85;;
9821;SDS011;4950;46.042;14.472;2022-09-21T12:16:10;3.40;;;0.80;;
9821;SDS011;4950;46.042;14.472;2022-09-21T12:18:45;0.90;;;0.70;;
9821;SDS011;4950;46.042;14.472;2022-09-21T12:21:20;0.70;;;0.50;;
9821;SDS011;4950;46.042;14.472;2022-09-21T12:23:50;1.23;;;0.75;;
9821;SDS011;4950;46.042;14.472;2022-09-21T12:26:23;0.90;;;0.57;;
9821;SDS011;4950;46.042;14.472;2022-09-21T12:28:55;0.68;;;0.57;;
9821;SDS011;4950;46.042;14.472;2022-09-21T12:31:28;0.75;;;0.63;;
9821;SDS011;4950;46.042;14.472;2022-09-21T12:34:02;1.50;;;0.60;;
9821;SDS011;4950;46.042;14.472;2022-09-21T12:36:35;2.08;;;0.60;;
9821;SDS011;4950;46.042;14.472;2022-09-21T12:39:08;1.40;;;0.70;;
9821;SDS011;4950;46.042;14.472;2022-09-21T12:41:41;1.55;;;0.50;;
9821;SDS011;4950;46.042;14.472;2022-09-21T12:44:15;0.85;;;0.47;;
9821;SDS011;4950;46.042;14.472;2022-09-21T12:46:47;0.75;;;0.65;;
9821;SDS011;4950;46.042;14.472;2022-09-21T12:49:22;0.80;;;0.73;;
9821;SDS011;4950;46.042;14.472;2022-09-21T12:51:55;1.05;;;0.50;;
9821;SDS011;4950;46.042;14.472;2022-09-21T12:54:27;0.60;;;0.50;;
9821;SDS011;4950;46.042;14.472;2022-09-21T12:57:03;2.95;;;0.70;;
9821;SDS011;4950;46.042;14.472;2022-09-21T12:59:39;1.15;;;0.75;;
9821;SDS011;4950;46.042;14.472;2022-09-21T13:02:16;0.60;;;0.50;;
9821;SDS011;4950;46.042;14.472;2022-09-21T13:04:54;0.70;;;0.60;;
9821;SDS011;4950;46.042;14.472;2022-09-21T13:07:38;1.30;;;0.70;;
9821;SDS011;4950;46.042;14.472;2022-09-21T13:10:31;1.17;;;0.70;;
9821;SDS011;4950;46.042;14.472;2022-09-21T13:13:07;1.02;;;0.70;;
9821;SDS011;4950;46.042;14.472;2022-09-21T13:15:52;0.80;;;0.60;;
9821;SDS011;4950;46.042;14.472;2022-09-21T13:18:22;1.40;;;0.68;;
9821;SDS011;4950;46.042;14.472;2022-09-21T13:20:52;1.20;;;0.80;;
9821;SDS011;4950;46.042;14.472;2022-09-21T13:23:21;0.90;;;0.60;;
9821;SDS011;4950;46.042;14.472;2022-09-21T13:26:01;0.88;;;0.60;;
9821;SDS011;4950;46.042;14.472;2022-09-21T13:28:40;0.93;;;0.70;;
9821;SDS011;4950;46.042;14.472;2022-09-21T13:31:41;0.90;;;0.80;;
9821;SDS011;4950;46.042;14.472;2022-09-21T13:43:15;1.88;;;0.60;;
9821;SDS011;4950;46.042;14.472;2022-09-21T13:45:52;1.08;;;0.88;;
9821;SDS011;4950;46.042;14.472;2022-09-21T13:48:23;1.38;;;0.80;;
9821;SDS011;4950;46.042;14.472;2022-09-21T13:50:59;1.40;;;0.90;;
9821;SDS011;4950;46.042;14.472;2022-09-21T13:53:34;1.73;;;0.70;;
9821;SDS011;4950;46.042;14.472;2022-09-21T13:58:51;0.95;;;0.80;;
9821;SDS011;4950;46.042;14.472;2022-09-21T14:01:21;3.65;;;0.82;;
9821;SDS011;4950;46.042;14.472;2022-09-21T14:03:51;0.80;;;0.60;;
9821;SDS011;4950;46.042;14.472;2022-09-21T14:06:22;1.40;;;0.80;;
9821;SDS011;4950;46.042;14.472;2022-09-21T14:08:54;1.05;;;0.70;;
9821;SDS011;4950;46.042;14.472;2022-09-21T14:11:28;2.85;;;0.88;;
9821;SDS011;4950;46.042;14.472;2022-09-21T14:14:05;1.17;;;0.80;;
9821;SDS011;4950;46.042;14.472;2022-09-21T14:22:36;1.90;;;0.98;;
9821;SDS011;4950;46.042;14.472;2022-09-21T14:25:21;1.17;;;0.70;;
9821;SDS011;4950;46.042;14.472;2022-09-21T14:27:51;0.60;;;0.52;;
9821;SDS011;4950;46.042;14.472;2022-09-21T14:30:20;1.40;;;0.95;;
9821;SDS011;4950;46.042;14.472;2022-09-21T14:32:50;2.45;;;0.90;;
9821;SDS011;4950;46.042;14.472;2022-09-21T14:35:27;0.82;;;0.70;;
9821;SDS011;4950;46.042;14.472;2022-09-21T14:37:58;0.95;;;0.70;;
9821;SDS011;4950;46.042;14.472;2022-09-21T14:40:30;1.27;;;0.63;;
9821;SDS011;4950;46.042;14.472;2022-09-21T14:43:00;2.00;;;0.85;;
9821;SDS011;4950;46.042;14.472;2022-09-21T14:45:36;1.42;;;0.80;;
9821;SDS011;4950;46.042;14.472;2022-09-21T14:48:15;1.00;;;0.70;;
9821;SDS011;4950;46.042;14.472;2022-09-21T14:50:53;1.50;;;0.93;;
9821;SDS011;4950;46.042;14.472;2022-09-21T14:53:38;2.08;;;0.75;;
9821;SDS011;4950;46.042;14.472;2022-09-21T14:56:22;0.95;;;0.85;;
9821;SDS011;4950;46.042;14.472;2022-09-21T14:59:04;0.93;;;0.82;;
9821;SDS011;4950;46.042;14.472;2022-09-21T15:01:53;4.15;;;0.90;;
9821;SDS011;4950;46.042;14.472;2022-09-21T15:04:38;1.98;;;0.70;;
9821;SDS011;4950;46.042;14.472;2022-09-21T15:07:24;0.98;;;0.70;;
9821;SDS011;4950;46.042;14.472;2022-09-21T15:10:22;1.83;;;0.95;;
9821;SDS011;4950;46.042;14.472;2022-09-21T15:13:13;1.50;;;0.77;;
9821;SDS011;4950;46.042;14.472;2022-09-21T15:15:50;1.13;;;0.80;;
9821;SDS011;4950;46.042;14.472;2022-09-21T15:18:31;1.30;;;0.70;;
9821;SDS011;4950;46.042;14.472;2022-09-21T15:21:00;2.03;;;0.70;;
9821;SDS011;4950;46.042;14.472;2022-09-21T15:23:30;1.23;;;0.68;;
9821;SDS011;4950;46.042;14.472;2022-09-21T15:25:59;2.05;;;0.70;;
9821;SDS011;4950;46.042;14.472;2022-09-21T15:28:29;0.88;;;0.60;;
9821;SDS011;4950;46.042;14.472;2022-09-21T15:31:00;1.27;;;0.70;;
9821;SDS011;4950;46.042;14.472;2022-09-21T15:33:27;3.30;;;0.60;;
9821;SDS011;4950;46.042;14.472;2022-09-21T15:35:58;0.95;;;0.85;;
9821;SDS011;4950;46.042;14.472;2022-09-21T15:38:27;1.75;;;0.90;;
9821;SDS011;4950;46.042;14.472;2022-09-21T15:40:54;0.85;;;0.75;;
9821;SDS011;4950;46.042;14.472;2022-09-21T15:43:21;3.42;;;1.05;;
9821;SDS011;4950;46.042;14.472;2022-09-21T15:45:50;1.00;;;0.77;;
9821;SDS011;4950;46.042;14.472;2022-09-21T15:48:19;0.90;;;0.65;;
9821;SDS011;4950;46.042;14.472;2022-09-21T15:50:47;0.98;;;0.77;;
9821;SDS011;4950;46.042;14.472;2022-09-21T15:53:20;1.30;;;0.82;;
9821;SDS011;4950;46.042;14.472;2022-09-21T15:55:50;1.13;;;0.70;;